createdAt,value
2024-02-29T00:01:38.100Z,9.70
2024-02-29T00:04:08.752Z,9.90
2024-02-29T00:06:39.988Z,9.40
2024-02-29T00:09:10.524Z,9.70
2024-02-29T00:11:41.350Z,9.00
2024-02-29T00:14:12.295Z,8.10
2024-02-29T00:16:44.141Z,9.80
2024-02-29T00:19:15.324Z,10.50
2024-02-29T00:21:46.784Z,10.10
2024-02-29T00:24:17.860Z,10.90
2024-02-29T00:26:49.439Z,11.20
2024-02-29T00:29:20.014Z,10.90
2024-02-29T00:31:50.984Z,10.70
2024-02-29T00:34:21.753Z,10.40
2024-02-29T00:36:52.616Z,9.90
2024-02-29T00:39:23.265Z,9.40
2024-02-29T00:41:54.137Z,9.70
2024-02-29T00:44:24.840Z,11.00
2024-02-29T00:46:55.387Z,11.10
2024-02-29T00:49:26.121Z,9.90
2024-02-29T00:51:56.892Z,11.80
2024-02-29T00:54:27.557Z,10.80
2024-02-29T00:56:58.331Z,12.00
2024-02-29T00:59:28.920Z,12.70
2024-02-29T01:01:59.668Z,14.10
2024-02-29T01:04:30.392Z,13.10
2024-02-29T01:07:01.068Z,12.40
2024-02-29T01:09:31.646Z,11.50
2024-02-29T01:12:02.202Z,11.30
2024-02-29T01:14:32.818Z,13.10
2024-02-29T01:17:03.576Z,11.40
2024-02-29T01:19:34.465Z,13.00
2024-02-29T01:22:05.244Z,11.40
2024-02-29T01:24:36.337Z,14.10
2024-02-29T01:27:07.806Z,14.70
2024-02-29T01:29:39.978Z,13.50
2024-02-29T01:32:18.629Z,14.20
2024-02-29T01:34:53.427Z,13.70
2024-02-29T01:37:24.041Z,13.70
2024-02-29T01:39:54.593Z,11.40
2024-02-29T01:42:25.155Z,15.60
2024-02-29T01:44:58.714Z,13.40
2024-02-29T01:47:29.926Z,14.00
2024-02-29T01:50:03.570Z,14.60
2024-02-29T01:52:38.282Z,15.00
2024-02-29T01:55:11.178Z,16.10
2024-02-29T01:57:42.492Z,14.80
2024-02-29T02:00:16.994Z,16.70
2024-02-29T02:02:47.817Z,15.60
2024-02-29T02:05:18.685Z,15.10
2024-02-29T02:07:50.617Z,15.50
2024-02-29T02:10:22.108Z,15.40
2024-02-29T02:12:53.308Z,15.60
2024-02-29T02:15:24.215Z,15.50
2024-02-29T02:17:54.929Z,14.90
2024-02-29T02:20:25.704Z,16.10
2024-02-29T02:22:57.996Z,17.80
2024-02-29T02:25:28.673Z,17.60
2024-02-29T02:27:59.162Z,18.90
2024-02-29T02:30:29.872Z,15.60
2024-02-29T02:33:00.812Z,15.00
2024-02-29T02:35:33.899Z,14.70
2024-02-29T02:38:05.501Z,14.80
2024-02-29T02:40:36.370Z,14.80
2024-02-29T02:43:07.385Z,14.40
2024-02-29T02:45:38.192Z,14.40
2024-02-29T02:48:10.469Z,14.90
2024-02-29T02:50:41.166Z,14.20
2024-02-29T02:53:11.771Z,18.40
2024-02-29T02:55:42.552Z,15.00
2024-02-29T02:58:13.473Z,14.90
2024-02-29T03:00:44.483Z,14.40
2024-02-29T03:03:15.353Z,13.60
2024-02-29T03:05:46.449Z,13.90
2024-02-29T03:08:17.048Z,13.30
2024-02-29T03:10:47.663Z,14.30
2024-02-29T03:13:18.324Z,13.60
2024-02-29T03:15:48.976Z,15.30
2024-02-29T03:18:19.521Z,13.30
2024-02-29T03:20:50.393Z,13.50
2024-02-29T03:23:21.063Z,13.80
2024-02-29T03:25:51.859Z,13.80
2024-02-29T03:28:23.073Z,14.70
2024-02-29T03:30:55.756Z,14.70
2024-02-29T03:33:26.285Z,13.50
2024-02-29T03:35:56.827Z,13.50
2024-02-29T03:38:27.901Z,13.50
2024-02-29T03:40:59.318Z,13.30
2024-02-29T03:43:30.747Z,14.30
2024-02-29T03:46:01.563Z,17.20
2024-02-29T03:48:32.304Z,16.50
2024-02-29T03:51:03.093Z,14.90
2024-02-29T03:53:33.796Z,16.10
2024-02-29T03:56:04.960Z,15.80
2024-02-29T03:58:35.954Z,15.00
2024-02-29T04:01:11.544Z,14.40
2024-02-29T04:03:42.878Z,15.70
2024-02-29T04:06:13.416Z,14.20
2024-02-29T04:08:44.184Z,16.50
2024-02-29T04:11:14.959Z,21.10
2024-02-29T04:13:45.722Z,17.50
2024-02-29T04:16:17.712Z,19.40
2024-02-29T04:18:48.355Z,17.00
2024-02-29T04:21:19.280Z,16.00
2024-02-29T04:23:49.896Z,16.70
2024-02-29T04:26:20.739Z,20.00
2024-02-29T04:28:51.862Z,17.70
2024-02-29T04:31:22.747Z,16.70
2024-02-29T04:33:53.487Z,16.10
2024-02-29T04:36:24.170Z,15.70
2024-02-29T04:38:54.906Z,15.90
2024-02-29T04:41:25.455Z,18.40
2024-02-29T04:43:56.477Z,17.50
2024-02-29T04:46:27.350Z,15.70
2024-02-29T04:48:58.208Z,15.30
2024-02-29T04:51:28.804Z,15.20
2024-02-29T04:53:59.822Z,14.80
2024-02-29T04:56:32.491Z,14.40
2024-02-29T04:59:04.989Z,15.30
2024-02-29T05:01:35.774Z,16.10
2024-02-29T05:04:06.574Z,15.80
2024-02-29T05:06:37.292Z,16.20
2024-02-29T05:09:07.924Z,15.60
2024-02-29T05:11:39.889Z,15.10
2024-02-29T05:14:10.832Z,14.40
2024-02-29T05:16:41.545Z,16.00
2024-02-29T05:19:12.832Z,14.80
2024-02-29T05:21:45.597Z,16.00
2024-02-29T05:24:16.321Z,15.60
2024-02-29T05:26:48.024Z,16.50
2024-02-29T05:29:18.689Z,18.90
2024-02-29T05:31:53.295Z,17.40
2024-02-29T05:34:24.415Z,17.10
2024-02-29T05:36:55.250Z,15.90
2024-02-29T05:39:26.019Z,17.30
2024-02-29T05:41:57.962Z,15.90
2024-02-29T05:44:30.175Z,15.10
2024-02-29T05:47:01.236Z,16.80
2024-02-29T05:49:32.172Z,17.50
2024-02-29T05:52:03.128Z,17.40
2024-02-29T05:54:34.057Z,17.00
2024-02-29T05:57:07.270Z,17.90
2024-02-29T05:59:38.022Z,18.90
2024-02-29T06:02:10.873Z,17.40
2024-02-29T06:04:41.725Z,17.20
2024-02-29T06:07:12.516Z,17.10
2024-02-29T06:09:44.186Z,16.70
2024-02-29T06:12:15.616Z,16.80
2024-02-29T06:14:47.239Z,17.80
2024-02-29T06:17:17.958Z,17.40
2024-02-29T06:19:49.649Z,18.10
2024-02-29T06:22:23.252Z,17.40
2024-02-29T06:24:54.062Z,19.30
2024-02-29T06:27:25.563Z,20.20
2024-02-29T06:29:55.988Z,18.60
2024-02-29T06:32:26.467Z,19.70
2024-02-29T06:34:57.052Z,17.50
2024-02-29T06:37:27.821Z,18.40
2024-02-29T06:39:58.892Z,18.80
2024-02-29T06:42:29.331Z,16.30
2024-02-29T06:45:00.282Z,16.80
2024-02-29T06:47:31.657Z,18.10
2024-02-29T06:50:03.401Z,17.20
2024-02-29T06:52:33.863Z,34.10
2024-02-29T06:55:07.516Z,19.50
2024-02-29T06:57:39.174Z,17.70
2024-02-29T07:00:13.563Z,17.00
2024-02-29T07:02:44.169Z,15.90
2024-02-29T07:05:15.164Z,17.20
2024-02-29T07:07:46.260Z,17.00
2024-02-29T07:10:17.377Z,15.20
2024-02-29T07:12:48.405Z,16.20
2024-02-29T07:15:19.421Z,15.00
2024-02-29T07:17:50.635Z,15.20
2024-02-29T07:20:21.704Z,15.30
2024-02-29T07:22:53.167Z,14.80
2024-02-29T07:25:23.902Z,13.50
2024-02-29T07:27:55.454Z,21.10
2024-02-29T07:30:27.592Z,16.20
2024-02-29T07:32:59.079Z,15.70
2024-02-29T07:35:31.691Z,15.50
2024-02-29T07:38:04.013Z,16.90
2024-02-29T07:40:34.870Z,16.70
2024-02-29T07:43:06.657Z,14.80
2024-02-29T07:45:37.541Z,15.40
2024-02-29T07:48:09.310Z,15.80
2024-02-29T07:50:40.394Z,15.90
2024-02-29T07:53:11.176Z,59.90
2024-02-29T07:55:42.110Z,19.90
2024-02-29T07:58:13.012Z,20.10
2024-02-29T08:00:43.876Z,17.10
2024-02-29T08:03:14.970Z,16.30
2024-02-29T08:05:47.209Z,16.20
2024-02-29T08:08:18.206Z,15.70
2024-02-29T08:10:49.007Z,16.70
2024-02-29T08:13:21.375Z,15.70
2024-02-29T08:15:52.466Z,17.10
2024-02-29T08:18:23.213Z,15.20
2024-02-29T08:20:53.896Z,15.50
2024-02-29T08:23:24.797Z,16.30
2024-02-29T08:25:55.310Z,13.10
2024-02-29T08:28:25.893Z,14.80
2024-02-29T08:30:57.033Z,15.40
2024-02-29T08:33:27.621Z,16.30
2024-02-29T08:35:58.419Z,17.50
2024-02-29T08:38:29.061Z,16.50
2024-02-29T08:41:00.042Z,15.20
2024-02-29T08:43:30.605Z,17.20
2024-02-29T08:46:01.171Z,17.10
2024-02-29T08:48:31.912Z,15.20
2024-02-29T08:51:02.904Z,18.60
2024-02-29T08:53:33.449Z,17.90
2024-02-29T08:56:04.508Z,19.30
2024-02-29T08:58:35.022Z,16.60
2024-02-29T09:01:05.934Z,19.10
2024-02-29T09:03:36.572Z,17.00
2024-02-29T09:06:07.733Z,17.10
2024-02-29T09:08:38.472Z,15.60
2024-02-29T09:11:09.100Z,17.10
2024-02-29T09:13:39.637Z,14.30
2024-02-29T09:16:10.908Z,13.60
2024-02-29T09:18:41.669Z,13.70
2024-02-29T09:21:12.227Z,15.00
2024-02-29T09:23:42.845Z,16.50
2024-02-29T09:26:17.354Z,16.50
2024-02-29T09:28:48.589Z,13.90
2024-02-29T09:31:20.546Z,15.60
2024-02-29T09:33:54.188Z,14.20
2024-02-29T09:36:25.486Z,13.70
2024-02-29T09:38:56.060Z,13.30
2024-02-29T09:41:41.392Z,13.20
2024-02-29T09:44:21.345Z,12.50
2024-02-29T09:46:52.835Z,12.80
2024-02-29T09:49:23.350Z,13.90
2024-02-29T09:51:54.284Z,13.00
2024-02-29T09:54:26.944Z,13.10
2024-02-29T09:56:57.954Z,11.70
2024-02-29T09:59:31.467Z,13.30
2024-02-29T10:02:04.822Z,13.30
2024-02-29T10:04:38.434Z,13.20
2024-02-29T10:07:10.110Z,13.10
2024-02-29T10:09:41.082Z,12.60
2024-02-29T10:12:17.923Z,41.50
2024-02-29T10:14:58.295Z,16.00
2024-02-29T10:17:32.712Z,15.90
2024-02-29T10:20:04.529Z,12.60
2024-02-29T10:22:34.825Z,14.60
2024-02-29T10:25:10.868Z,14.70
2024-02-29T10:27:41.772Z,14.80
2024-02-29T10:30:16.107Z,15.80
2024-02-29T10:32:48.204Z,16.60
2024-02-29T10:35:23.447Z,14.30
2024-02-29T10:37:56.294Z,14.20
2024-02-29T10:40:27.227Z,13.40
2024-02-29T10:43:01.648Z,15.10
2024-02-29T10:45:35.598Z,15.40
2024-02-29T10:48:16.875Z,15.90
2024-02-29T10:51:04.244Z,14.10
2024-02-29T10:53:48.872Z,15.60
2024-02-29T10:56:24.675Z,15.60
2024-02-29T10:59:04.120Z,15.40
2024-02-29T11:01:36.780Z,16.70
2024-02-29T11:04:08.322Z,15.40
2024-02-29T11:06:43.300Z,15.90
2024-02-29T11:09:15.915Z,16.30
2024-02-29T11:11:47.900Z,15.80
2024-02-29T11:14:19.708Z,16.70
2024-02-29T11:16:50.176Z,17.30
2024-02-29T11:19:21.072Z,17.30
2024-02-29T11:21:51.742Z,16.20
2024-02-29T11:24:23.922Z,16.70
2024-02-29T11:26:58.370Z,16.80
2024-02-29T11:29:32.398Z,16.00
2024-02-29T11:32:05.958Z,16.70
2024-02-29T11:34:38.061Z,15.80
2024-02-29T11:37:10.187Z,16.90
2024-02-29T11:39:41.567Z,18.00
2024-02-29T11:42:14.702Z,16.90
2024-02-29T11:44:55.498Z,16.10
2024-02-29T11:47:28.359Z,16.90
2024-02-29T11:50:02.596Z,17.80
2024-02-29T11:52:33.387Z,19.40
2024-02-29T11:55:04.608Z,18.90
2024-02-29T11:57:36.790Z,17.20
2024-02-29T12:00:10.677Z,21.40
2024-02-29T12:02:44.604Z,20.90
2024-02-29T12:05:17.799Z,21.80
2024-02-29T12:07:49.834Z,15.70
2024-02-29T12:10:21.797Z,17.10
2024-02-29T12:12:52.297Z,15.20
2024-02-29T12:15:22.888Z,16.10
2024-02-29T12:17:53.828Z,16.80
2024-02-29T12:20:25.987Z,17.40
2024-02-29T12:23:01.029Z,18.20
2024-02-29T12:25:31.586Z,18.40
2024-02-29T12:28:03.334Z,18.00
2024-02-29T12:30:35.399Z,17.10
2024-02-29T12:33:06.899Z,15.40
2024-02-29T12:35:37.300Z,18.00
2024-02-29T12:38:14.071Z,17.30
2024-02-29T12:40:46.425Z,17.20
2024-02-29T12:43:17.947Z,17.30
2024-02-29T12:45:49.090Z,16.30
2024-02-29T12:48:19.601Z,16.00
2024-02-29T12:50:51.160Z,15.30
2024-02-29T12:53:21.755Z,18.00
2024-02-29T12:55:53.047Z,17.80
2024-02-29T12:58:23.762Z,17.20
2024-02-29T13:00:54.468Z,17.80
2024-02-29T13:03:24.988Z,16.60
2024-02-29T13:05:56.429Z,17.20
2024-02-29T13:08:27.029Z,17.70
2024-02-29T13:10:57.281Z,18.00
2024-02-29T13:13:27.555Z,17.70
2024-02-29T13:15:58.529Z,18.10
2024-02-29T13:18:31.192Z,15.90
2024-02-29T13:43:00.235Z,16.90
2024-02-29T13:45:38.550Z,18.50
2024-02-29T13:48:10.023Z,17.80
2024-02-29T13:50:42.741Z,17.40
2024-02-29T13:53:13.026Z,18.00
2024-02-29T13:55:45.834Z,18.20
2024-02-29T13:58:17.965Z,18.90
2024-02-29T14:00:48.525Z,18.80
2024-02-29T14:03:19.171Z,18.50
2024-02-29T14:05:50.104Z,18.80
2024-02-29T14:08:20.844Z,18.90
2024-02-29T14:10:51.229Z,20.10
2024-02-29T14:13:21.785Z,19.10
2024-02-29T14:15:52.271Z,22.10
2024-02-29T14:18:22.793Z,20.00
2024-02-29T14:20:53.286Z,20.60
2024-02-29T14:23:24.109Z,17.40
2024-02-29T14:25:54.699Z,18.30
2024-02-29T14:28:25.692Z,20.60
2024-02-29T14:30:56.364Z,19.90
2024-02-29T14:33:26.770Z,21.30
2024-02-29T14:35:58.684Z,20.40
2024-02-29T14:38:29.391Z,21.80
2024-02-29T14:40:59.736Z,21.60
2024-02-29T14:43:30.328Z,20.30
2024-02-29T14:46:02.224Z,19.90
2024-02-29T14:48:35.118Z,21.60
2024-02-29T14:51:05.836Z,21.40
2024-02-29T14:53:36.135Z,22.10
2024-02-29T14:56:07.338Z,22.50
2024-02-29T14:58:37.990Z,25.10
2024-02-29T15:01:08.449Z,25.70
2024-02-29T15:03:39.326Z,24.20
2024-02-29T15:06:10.010Z,23.20
2024-02-29T15:08:40.947Z,22.90
2024-02-29T15:11:11.531Z,22.10
2024-02-29T15:13:41.837Z,23.10
2024-02-29T15:16:13.281Z,21.10
2024-02-29T15:18:43.838Z,19.80
2024-02-29T15:21:14.189Z,20.60
2024-02-29T15:23:45.269Z,21.40
2024-02-29T15:26:16.149Z,23.10
2024-02-29T15:28:49.234Z,22.80
2024-02-29T15:31:20.248Z,20.40
2024-02-29T15:33:50.860Z,22.90
2024-02-29T15:36:21.499Z,20.50
2024-02-29T15:38:52.098Z,22.30
2024-02-29T15:41:22.716Z,24.10
2024-02-29T15:43:53.626Z,21.00
2024-02-29T15:46:24.382Z,21.60
2024-02-29T15:48:55.363Z,24.80
2024-02-29T15:51:25.909Z,23.80
2024-02-29T15:53:56.283Z,22.50
2024-02-29T15:56:26.908Z,23.30
2024-02-29T15:58:57.847Z,23.30
2024-02-29T16:01:29.204Z,24.10
2024-02-29T16:03:59.991Z,23.40
2024-02-29T16:06:30.357Z,23.60
2024-02-29T16:09:00.926Z,25.70
2024-02-29T16:11:31.496Z,25.70
2024-02-29T16:14:01.964Z,26.10
2024-02-29T16:16:32.544Z,26.70
2024-02-29T16:19:03.780Z,26.20
2024-02-29T16:21:34.191Z,26.60
2024-02-29T16:24:05.726Z,28.00
2024-02-29T16:26:36.586Z,25.40
2024-02-29T16:29:07.109Z,28.20
2024-02-29T16:31:37.540Z,27.20
2024-02-29T16:34:08.601Z,26.40
2024-02-29T16:36:39.173Z,26.30
2024-02-29T16:39:09.784Z,27.60
2024-02-29T16:41:40.702Z,27.50
2024-02-29T16:44:12.153Z,26.60
2024-02-29T16:46:44.891Z,26.60
2024-02-29T16:49:15.460Z,24.70
2024-02-29T16:51:45.833Z,21.10
2024-02-29T16:54:16.380Z,24.20
2024-02-29T16:56:47.132Z,26.00
2024-02-29T16:59:17.522Z,24.70
2024-02-29T17:01:47.938Z,27.50
2024-02-29T17:04:18.873Z,28.30
2024-02-29T17:06:49.699Z,26.80
2024-02-29T17:09:20.410Z,25.50
2024-02-29T17:11:51.164Z,27.90
2024-02-29T17:14:21.482Z,27.30
2024-02-29T17:16:52.594Z,29.80
2024-02-29T17:19:23.470Z,30.60
2024-02-29T17:21:54.161Z,31.50
2024-02-29T17:24:25.416Z,29.00
2024-02-29T17:26:56.161Z,31.70
2024-02-29T17:29:27.168Z,32.40
2024-02-29T17:31:57.837Z,28.40
2024-02-29T17:34:28.438Z,33.20
2024-02-29T17:36:59.402Z,33.10
2024-02-29T17:39:30.042Z,31.50
2024-02-29T17:42:00.732Z,30.50
2024-02-29T17:44:31.582Z,31.40
2024-02-29T17:47:02.269Z,29.70
2024-02-29T17:49:33.184Z,32.70
2024-02-29T17:52:04.598Z,31.60
2024-02-29T17:54:35.499Z,33.10
2024-02-29T17:57:07.467Z,33.70
2024-02-29T17:59:39.560Z,33.20
2024-02-29T18:02:11.032Z,32.70
2024-02-29T18:04:41.946Z,32.70
2024-02-29T18:07:13.211Z,33.60
2024-02-29T18:09:44.146Z,33.00
2024-02-29T18:12:15.049Z,31.20
2024-02-29T18:14:45.684Z,29.80
2024-02-29T18:17:16.769Z,27.50
2024-02-29T18:19:47.618Z,32.30
2024-02-29T18:22:18.885Z,29.60
2024-02-29T18:24:50.065Z,27.80
2024-02-29T18:27:20.827Z,27.90
2024-02-29T18:29:51.649Z,33.40
2024-02-29T18:32:22.318Z,34.20
2024-02-29T18:34:53.079Z,33.10
2024-02-29T18:37:25.419Z,32.80
2024-02-29T18:39:56.668Z,30.40
2024-02-29T18:42:29.084Z,28.40
2024-02-29T18:45:00.996Z,28.00
2024-02-29T18:47:31.807Z,31.60
2024-02-29T18:50:02.419Z,28.80
2024-02-29T18:52:33.113Z,32.80
2024-02-29T18:55:04.384Z,31.20
2024-02-29T18:57:34.764Z,31.50
2024-02-29T19:00:07.286Z,30.30
2024-02-29T19:02:38.095Z,28.40
2024-02-29T19:05:10.662Z,30.60
2024-02-29T19:07:41.353Z,29.00
2024-02-29T19:10:14.774Z,28.80
2024-02-29T19:12:45.394Z,29.00
2024-02-29T19:15:16.407Z,31.40
2024-02-29T19:17:47.003Z,31.90
2024-02-29T19:20:17.838Z,31.80
2024-02-29T19:22:51.786Z,31.00
2024-02-29T19:25:22.782Z,32.20
2024-02-29T19:27:53.393Z,29.90
2024-02-29T19:30:26.146Z,29.10
2024-02-29T19:32:56.805Z,30.30
2024-02-29T19:35:28.550Z,30.40
2024-02-29T19:37:59.000Z,30.30
2024-02-29T19:40:29.887Z,30.00
2024-02-29T19:43:00.723Z,30.90
2024-02-29T19:45:31.471Z,28.10
2024-02-29T19:48:04.618Z,27.10
2024-02-29T19:50:35.711Z,25.20
2024-02-29T19:53:07.032Z,23.70
2024-02-29T19:55:40.852Z,23.80
2024-02-29T19:58:13.267Z,24.10
2024-02-29T20:00:47.615Z,22.80
2024-02-29T20:03:18.881Z,21.90
2024-02-29T20:05:49.508Z,19.60
2024-02-29T20:08:20.940Z,20.90
2024-02-29T20:10:51.879Z,20.80
2024-02-29T20:13:23.221Z,21.20
2024-02-29T20:15:54.077Z,23.60
2024-02-29T20:18:27.712Z,24.40
2024-02-29T20:20:58.717Z,26.20
2024-02-29T20:23:29.491Z,29.00
2024-02-29T20:26:01.045Z,33.50
2024-02-29T20:28:32.102Z,32.90
2024-02-29T20:31:05.323Z,33.60
2024-02-29T20:33:36.538Z,31.00
2024-02-29T20:36:10.316Z,36.10
2024-02-29T20:38:42.079Z,32.70
2024-02-29T20:41:13.250Z,34.70
2024-02-29T20:43:44.533Z,37.00
2024-02-29T20:46:17.220Z,36.00
2024-02-29T20:48:48.197Z,38.70
2024-02-29T20:51:19.017Z,37.90
2024-02-29T20:53:49.940Z,35.80
2024-02-29T20:56:20.700Z,35.10
2024-02-29T20:58:51.637Z,33.40
2024-02-29T21:01:22.503Z,34.40
2024-02-29T21:03:53.006Z,34.60
2024-02-29T21:06:23.882Z,32.40
2024-02-29T21:08:55.493Z,32.60
2024-02-29T21:11:26.276Z,35.30
2024-02-29T21:13:56.953Z,32.10
2024-02-29T21:16:27.301Z,29.00
2024-02-29T21:18:58.470Z,31.90
2024-02-29T21:21:29.938Z,32.20
2024-02-29T21:24:00.747Z,28.80
2024-02-29T21:26:31.536Z,30.50
2024-02-29T21:29:03.522Z,28.80
2024-02-29T21:31:34.646Z,28.10
2024-02-29T21:34:08.817Z,34.20
2024-02-29T21:36:39.705Z,34.70
2024-02-29T21:39:11.015Z,32.60
2024-02-29T21:41:41.811Z,33.30
2024-02-29T21:44:12.822Z,32.70
2024-02-29T21:46:43.476Z,32.90
2024-02-29T21:49:14.392Z,34.90
2024-02-29T21:51:45.184Z,33.20
2024-02-29T21:54:17.083Z,32.50
2024-02-29T21:56:48.050Z,32.90
2024-02-29T21:59:19.763Z,27.10
2024-02-29T22:01:50.988Z,34.30
2024-02-29T22:04:21.525Z,34.20
2024-02-29T22:06:52.517Z,33.60
2024-02-29T22:09:24.365Z,38.50
2024-02-29T22:11:56.362Z,34.30
2024-02-29T22:14:27.161Z,32.20
2024-02-29T22:16:58.139Z,32.60
2024-02-29T22:19:28.980Z,32.70
2024-02-29T22:22:01.225Z,31.90
2024-02-29T22:24:31.947Z,33.00
2024-02-29T22:27:02.768Z,32.70
2024-02-29T22:29:33.431Z,30.40
2024-02-29T22:32:05.401Z,36.80
2024-02-29T22:34:36.598Z,32.30
2024-02-29T22:37:08.074Z,27.70
2024-02-29T22:39:43.232Z,33.30
2024-02-29T22:42:14.048Z,36.00
2024-02-29T22:44:44.497Z,34.00
2024-02-29T22:47:15.437Z,37.60
2024-02-29T22:49:45.888Z,34.40
2024-02-29T22:52:16.593Z,34.30
2024-02-29T22:54:47.193Z,33.70
2024-02-29T22:57:17.772Z,31.30
2024-02-29T22:59:48.361Z,35.90
2024-02-29T23:02:19.085Z,38.30
2024-02-29T23:04:49.776Z,37.00
2024-02-29T23:07:20.436Z,35.00
2024-02-29T23:09:51.645Z,36.80
2024-02-29T23:12:22.330Z,33.10
2024-02-29T23:14:52.860Z,35.70
2024-02-29T23:17:23.447Z,34.60
2024-02-29T23:19:56.242Z,37.20
2024-02-29T23:22:27.039Z,36.40
2024-02-29T23:24:57.760Z,35.20
2024-02-29T23:27:28.438Z,38.80
2024-02-29T23:29:58.862Z,40.60
2024-02-29T23:32:29.064Z,38.70
2024-02-29T23:34:59.307Z,36.70
2024-02-29T23:37:29.681Z,34.60
2024-02-29T23:40:00.594Z,39.10
2024-02-29T23:42:31.154Z,36.60
2024-02-29T23:45:02.355Z,37.90
2024-02-29T23:47:32.638Z,36.30
2024-02-29T23:50:03.256Z,37.30
2024-02-29T23:52:33.562Z,37.50
2024-02-29T23:55:05.407Z,39.10
2024-02-29T23:57:36.113Z,36.40
